Stanstead, Canada
Current Conditions -  °F | °C
As of 6:35 AM on Friday 24 Oct 2014 (Local Time) from KEFK Reporting Station
Overcast Overcast  
Wind Chill: 36°   Ceiling: 900
Heat Index: 41°   Visibility: 10mi
Dew Point: 40°   Wind: 9mph
Humidity: 94%   Direction: 350°N
Pressure: 29.81"   Gusts: NA
Location:  45.02°N, 72.08°W
Report Text: KEFK 241035Z AUTO 35008KT 10SM OVC009 05/04 A2981 RMK AO2 T00520043
Loading
Personal Weather Stations






























Interactive Weather Map
Tropical Storm Tracking
New forecast layout! Learn more

10-Day Weather Forecast

Advertisements
Track Severe Weather on mobile